Time;durP1;ratioP1;P1;durP2;ratioP2;P2;SDS_P1;SDS_P2;PMS_P1;PMS_P2;Temp;Humidity;BMP_temperature;BMP_pressure;BME280_temperature;BME280_humidity;BME280_pressure;Samples;Min_cycle;Max_cycle;Signal;HPM_P1;HPM_P2
2022/07/18 00:01:59;;;;;;;2.65;1.80;;;;;;;15.75;72.45;100797.63;5013550;28;20049;-84
2022/07/18 00:04:26;;;;;;;5.18;2.05;;;;;;;15.74;72.00;100787.66;5013833;28;20049;-84
2022/07/18 00:06:52;;;;;;;4.47;1.90;;;;;;;15.68;72.42;100793.06;5030709;28;20049;-84
2022/07/18 00:09:18;;;;;;;2.80;2.10;;;;;;;15.55;73.52;100788.75;5031619;28;20029;-84
2022/07/18 00:11:44;;;;;;;5.03;2.20;;;;;;;15.44;74.00;100789.09;4995094;28;20049;-84
2022/07/18 00:14:10;;;;;;;3.05;2.00;;;;;;;15.37;73.69;100792.13;5013796;28;20472;-82
2022/07/18 00:16:36;;;;;;;3.42;2.47;;;;;;;15.31;73.92;100788.34;5012126;28;20041;-82
2022/07/18 00:19:03;;;;;;;3.35;2.00;;;;;;;15.24;73.76;100791.38;5012464;28;20053;-82
2022/07/18 00:21:29;;;;;;;4.15;2.10;;;;;;;15.20;73.81;100791.50;5011791;28;20029;-83
2022/07/18 00:23:55;;;;;;;2.85;2.10;;;;;;;15.07;75.05;100784.38;5011481;28;20053;-82
2022/07/18 00:26:24;;;;;;;3.28;2.10;;;;;;;15.02;74.13;100776.56;5011771;28;20071;-82
2022/07/18 00:28:50;;;;;;;8.18;2.40;;;;;;;15.04;73.19;100779.69;4995227;28;20037;-83
2022/07/18 00:31:16;;;;;;;2.78;1.80;;;;;;;15.14;74.41;100792.50;4991658;28;20057;-82
2022/07/18 00:33:41;;;;;;;3.53;2.30;;;;;;;15.17;73.75;100791.59;4995110;28;20034;-80
2022/07/18 00:36:07;;;;;;;5.95;2.20;;;;;;;15.16;73.80;100795.66;5010755;28;20041;-86
2022/07/18 00:38:32;;;;;;;2.53;2.00;;;;;;;14.96;73.86;100793.13;4996845;28;20399;-85
2022/07/18 00:40:58;;;;;;;4.40;2.33;;;;;;;14.93;74.45;100794.78;5027007;28;20041;-86
2022/07/18 00:43:23;;;;;;;4.53;2.30;;;;;;;14.88;76.27;100791.78;5029227;28;20080;-84
2022/07/18 00:45:49;;;;;;;3.60;1.95;;;;;;;14.94;74.68;100804.72;5013338;28;20052;-85
2022/07/18 00:48:18;;;;;;;3.10;2.08;;;;;;;14.89;75.14;100794.13;5010848;28;20136;-84
2022/07/18 00:50:45;;;;;;;3.38;1.95;;;;;;;14.82;76.42;100799.94;4997776;28;20045;-82
2022/07/18 00:53:10;;;;;;;4.40;2.00;;;;;;;14.73;76.57;100802.59;5015065;28;20073;-85
2022/07/18 00:55:46;;;;;;;2.70;1.90;;;;;;;14.76;75.72;100792.56;5013857;28;20127;-83
2022/07/18 00:58:13;;;;;;;4.45;2.10;;;;;;;14.79;74.87;100800.84;5015715;28;20120;-84
2022/07/18 01:03:26;;;;;;;2.88;2.03;;;;;;;14.64;77.23;100799.69;5031506;28;20052;-84
2022/07/18 01:05:51;;;;;;;3.30;1.90;;;;;;;14.66;77.30;100797.25;5033682;28;20643;-84
2022/07/18 01:08:20;;;;;;;3.78;2.00;;;;;;;14.57;77.66;100790.75;5014652;28;20037;-85
2022/07/18 01:10:46;;;;;;;3.45;2.40;;;;;;;14.59;78.05;100797.50;5016186;28;20084;-81
2022/07/18 01:13:12;;;;;;;3.25;1.80;;;;;;;14.53;78.28;100788.09;5016026;28;20691;-82
2022/07/18 01:15:37;;;;;;;3.75;2.35;;;;;;;14.56;76.82;100781.59;5013201;28;20116;-81
2022/07/18 01:18:08;;;;;;;3.42;2.13;;;;;;;14.52;77.57;100794.91;5030175;28;20143;-82
2022/07/18 01:20:34;;;;;;;3.97;2.08;;;;;;;14.47;76.71;100795.47;5024427;28;20034;-81
2022/07/18 01:22:59;;;;;;;3.33;1.75;;;;;;;14.52;76.04;100794.91;5035899;28;20044;-82
2022/07/18 01:25:26;;;;;;;3.47;1.85;;;;;;;14.32;78.59;100795.06;5016259;28;20053;-82
2022/07/18 01:27:52;;;;;;;3.67;2.03;;;;;;;14.30;77.47;100791.97;5033198;28;20052;-82
2022/07/18 01:30:17;;;;;;;3.22;2.03;;;;;;;14.28;77.94;100793.59;4997152;28;20478;-82
2022/07/18 01:32:43;;;;;;;3.53;2.08;;;;;;;14.31;77.24;100804.69;5029188;28;20474;-82
2022/07/18 01:35:09;;;;;;;2.95;2.00;;;;;;;14.30;76.71;100794.75;5016831;28;20044;-82
2022/07/18 01:37:35;;;;;;;3.45;2.10;;;;;;;14.28;76.96;100805.56;5013602;28;20486;-82
2022/07/18 01:40:00;;;;;;;3.17;2.10;;;;;;;14.28;75.98;100802.75;5031388;28;20038;-82
2022/07/18 01:42:26;;;;;;;6.10;2.03;;;;;;;14.26;76.44;100807.22;5016273;28;20151;-82
2022/07/18 01:44:51;;;;;;;3.75;2.28;;;;;;;14.25;76.54;100805.66;5014613;28;20434;-82
2022/07/18 01:47:17;;;;;;;3.83;2.20;;;;;;;14.18;76.59;100808.66;4996081;28;20490;-82
2022/07/18 01:49:43;;;;;;;3.03;2.00;;;;;;;14.19;75.90;100801.88;5030676;28;20049;-85
2022/07/18 01:52:09;;;;;;;2.60;1.80;;;;;;;14.20;75.89;100792.25;5014986;28;20038;-85
2022/07/18 01:54:37;;;;;;;4.75;2.35;;;;;;;14.17;75.98;100799.50;5032640;28;20107;-85
2022/07/18 01:57:04;;;;;;;3.47;2.10;;;;;;;14.08;77.16;100795.78;4997268;28;20483;-85
2022/07/18 01:59:30;;;;;;;2.92;2.10;;;;;;;14.08;76.30;100799.38;5012677;28;20044;-85
2022/07/18 02:01:56;;;;;;;3.03;2.38;;;;;;;13.96;78.26;100802.91;5029637;28;20477;-85
2022/07/18 02:04:59;;;;;;;3.67;2.20;;;;;;;13.91;78.45;100803.47;5011718;28;20057;-85
2022/07/18 02:07:11;;;;;;;5.15;2.40;;;;;;;13.79;79.58;100788.25;5017510;28;20044;-85
2022/07/18 02:09:36;;;;;;;2.60;2.00;;;;;;;13.68;80.34;100793.34;5014269;28;20470;-82
2022/07/18 02:12:02;;;;;;;2.75;1.90;;;;;;;13.71;79.65;100788.91;5018960;28;20036;-82
2022/07/18 02:14:28;;;;;;;2.90;2.00;;;;;;;13.61;79.45;100796.31;5032786;28;20056;-82
2022/07/18 02:16:53;;;;;;;3.40;1.90;;;;;;;13.54;78.87;100796.53;5011359;28;20518;-82
2022/07/18 02:19:19;;;;;;;5.82;2.10;;;;;;;13.59;77.12;100795.97;4996461;28;20050;-82
2022/07/18 02:21:44;;;;;;;8.30;2.10;;;;;;;13.53;76.79;100790.16;5012718;28;20025;-82
2022/07/18 02:24:10;;;;;;;2.70;1.80;;;;;;;13.48;76.95;100792.69;5038259;28;20090;-82
2022/07/18 02:26:35;;;;;;;5.15;2.28;;;;;;;13.46;76.72;100797.94;4994379;28;20045;-82
2022/07/18 02:29:01;;;;;;;2.65;2.00;;;;;;;13.57;75.71;100800.41;5012957;28;20095;-82
2022/07/18 02:31:26;;;;;;;4.45;1.98;;;;;;;13.60;76.01;100789.16;4997424;28;20041;-81
2022/07/18 02:33:52;;;;;;;3.70;1.88;;;;;;;13.63;76.00;100799.44;5022537;28;20036;-82
2022/07/18 02:36:18;;;;;;;3.33;2.08;;;;;;;13.64;77.10;100794.66;4982451;28;20427;-81
2022/07/18 02:38:43;;;;;;;3.83;2.13;;;;;;;13.63;78.85;100793.88;5045485;28;20048;-81
2022/07/18 02:41:09;;;;;;;3.97;2.15;;;;;;;13.64;78.73;100795.44;5012913;28;20037;-82
2022/07/18 02:43:34;;;;;;;3.33;2.00;;;;;;;13.61;79.54;100790.75;5031389;28;20413;-82
2022/07/18 02:46:00;;;;;;;3.40;2.30;;;;;;;13.51;80.80;100802.94;4997185;28;20053;-82
2022/07/18 02:48:25;;;;;;;4.30;2.30;;;;;;;13.48;80.20;100778.75;4996776;28;20118;-82
2022/07/18 02:50:51;;;;;;;2.85;2.03;;;;;;;13.42;80.88;100791.66;4980246;28;20525;-82
2022/07/18 02:53:19;;;;;;;2.30;2.03;;;;;;;13.39;80.91;100796.09;5001030;28;20048;-82
2022/07/18 02:55:44;;;;;;;4.90;1.92;;;;;;;13.42;80.16;100794.44;5019888;28;20515;-82
2022/07/18 02:58:10;;;;;;;4.18;2.05;;;;;;;13.38;80.18;100788.97;5030973;28;20065;-82
2022/07/18 03:00:35;;;;;;;3.42;2.22;;;;;;;13.39;81.72;100789.72;4993224;28;20038;-81
2022/07/18 03:03:01;;;;;;;2.88;2.10;;;;;;;13.34;82.44;100785.50;5033811;28;20054;-82
2022/07/18 03:05:26;;;;;;;3.05;2.20;;;;;;;13.38;81.13;100797.34;5000091;28;20121;-82
2022/07/18 03:07:52;;;;;;;5.65;2.10;;;;;;;13.38;80.18;100785.41;4975980;28;20069;-82
2022/07/18 03:10:17;;;;;;;2.95;2.00;;;;;;;13.34;80.80;100793.84;5010471;28;20429;-82
2022/07/18 03:12:43;;;;;;;3.47;2.03;;;;;;;13.27;82.12;100798.81;5034651;28;20045;-82
2022/07/18 03:15:09;;;;;;;3.40;2.00;;;;;;;13.25;81.92;100792.91;5011182;28;20042;-82
2022/07/18 03:17:34;;;;;;;5.60;2.20;;;;;;;13.17;82.65;100788.72;4993274;28;20038;-82
2022/07/18 03:20:00;;;;;;;3.42;2.10;;;;;;;13.17;81.86;100783.16;4976076;28;20038;-82
2022/07/18 03:22:26;;;;;;;3.40;2.00;;;;;;;13.15;81.48;100796.72;4992732;28;20034;-82
2022/07/18 03:24:51;;;;;;;4.53;2.20;;;;;;;13.18;82.49;100793.09;5014514;28;20068;-85
2022/07/18 03:27:17;;;;;;;2.47;2.00;;;;;;;13.17;81.74;100785.94;4999170;28;20061;-82
2022/07/18 03:29:42;;;;;;;2.88;2.40;;;;;;;13.34;80.89;100781.94;4980155;28;20037;-82
2022/07/18 03:32:08;;;;;;;5.68;2.08;;;;;;;13.34;82.34;100801.44;5027693;28;20128;-82
2022/07/18 03:34:33;;;;;;;4.60;2.20;;;;;;;13.34;82.46;100804.22;4988406;28;20494;-82
2022/07/18 03:36:59;;;;;;;3.92;2.22;;;;;;;13.31;81.72;100788.34;5014492;28;20045;-82
2022/07/18 03:39:25;;;;;;;4.63;2.28;;;;;;;13.32;81.96;100801.06;4998025;28;20042;-82
2022/07/18 03:41:52;;;;;;;4.97;2.20;;;;;;;13.30;82.82;100800.75;4993355;28;20046;-82
2022/07/18 03:44:17;;;;;;;3.22;2.17;;;;;;;13.30;83.29;100793.16;5011059;28;20135;-85
2022/07/18 03:46:43;;;;;;;3.10;2.15;;;;;;;13.30;83.34;100797.94;5007639;28;20038;-84
2022/07/18 03:49:08;;;;;;;3.42;2.22;;;;;;;13.36;82.83;100802.56;4975084;28;20041;-85
2022/07/18 03:51:34;;;;;;;4.68;2.13;;;;;;;13.41;83.14;100795.66;4995186;28;20049;-84
2022/07/18 03:54:00;;;;;;;3.75;2.08;;;;;;;13.47;80.62;100796.69;5008915;28;20570;-85
2022/07/18 03:56:25;;;;;;;5.60;2.47;;;;;;;13.58;80.87;100802.78;4992073;28;20038;-85
2022/07/18 03:58:51;;;;;;;5.10;2.20;;;;;;;13.62;82.11;100803.47;4992931;28;20187;-86
2022/07/18 04:01:18;;;;;;;4.43;2.40;;;;;;;13.63;82.79;100802.22;5005406;28;20038;-85
2022/07/18 04:03:43;;;;;;;4.18;1.90;;;;;;;13.52;82.79;100807.31;5001123;28;20048;-82
2022/07/18 04:06:09;;;;;;;4.43;2.28;;;;;;;13.55;82.47;100800.84;4996649;28;20045;-82
2022/07/18 04:08:34;;;;;;;3.50;2.40;;;;;;;13.59;81.52;100798.75;5011936;28;20049;-82
2022/07/18 04:11:00;;;;;;;6.47;2.35;;;;;;;13.59;81.30;100804.31;5010345;28;20388;-82
2022/07/18 04:13:26;;;;;;;4.22;2.30;;;;;;;13.60;81.38;100805.91;5014003;28;20426;-82
2022/07/18 04:15:51;;;;;;;6.28;3.00;;;;;;;13.56;81.03;100805.22;5013496;28;20041;-82
2022/07/18 04:18:17;;;;;;;4.07;2.40;;;;;;;13.65;79.91;100807.38;5012919;28;20041;-82
2022/07/18 04:20:42;;;;;;;4.38;2.30;;;;;;;13.63;79.43;100805.00;5011562;28;20033;-86
2022/07/18 04:23:09;;;;;;;4.72;2.20;;;;;;;13.72;78.52;100807.97;4997493;28;20128;-86
2022/07/18 04:25:40;;;;;;;3.90;2.10;;;;;;;13.78;78.22;100806.22;5014377;28;20131;-86
2022/07/18 04:28:08;;;;;;;3.90;2.40;;;;;;;13.80;79.08;100812.13;5015387;28;20046;-86
2022/07/18 04:30:34;;;;;;;5.38;2.20;;;;;;;13.82;78.45;100801.31;5004479;28;20038;-86
2022/07/18 04:33:02;;;;;;;6.05;2.47;;;;;;;13.85;79.08;100819.16;5021450;28;20042;-86
2022/07/18 04:35:28;;;;;;;3.58;2.17;;;;;;;13.90;78.84;100813.84;5019793;28;20558;-86
2022/07/18 04:37:53;;;;;;;4.07;2.17;;;;;;;14.01;78.15;100802.38;5029387;28;20082;-86
2022/07/18 04:40:19;;;;;;;3.97;2.15;;;;;;;14.10;77.29;100798.94;5012854;28;20042;-87
2022/07/18 04:42:45;;;;;;;5.82;2.63;;;;;;;14.23;77.12;100808.91;5012858;28;20083;-86
2022/07/18 04:45:11;;;;;;;3.13;2.15;;;;;;;14.25;77.15;100800.09;5011926;28;20057;-86
2022/07/18 04:47:37;;;;;;;2.95;2.20;;;;;;;14.36;76.33;100806.16;5012476;28;20034;-86
2022/07/18 04:50:04;;;;;;;4.20;2.40;;;;;;;14.43;76.96;100823.50;5027076;28;20041;-86
2022/07/18 04:52:40;;;;;;;5.60;2.70;;;;;;;14.56;76.50;100815.09;4978236;28;20056;-87
2022/07/18 04:55:07;;;;;;;7.22;2.55;;;;;;;14.67;76.78;100820.38;5027075;28;20045;-86
2022/07/18 04:57:34;;;;;;;4.63;2.60;;;;;;;14.75;76.99;100822.50;5010608;28;20095;-85
2022/07/18 05:00:00;;;;;;;5.65;2.35;;;;;;;14.81;76.51;100814.34;4998718;28;20064;-83
2022/07/18 05:02:26;;;;;;;5.90;3.25;;;;;;;14.84;76.68;100819.06;4987825;28;20398;-83
2022/07/18 05:04:51;;;;;;;6.32;2.83;;;;;;;14.92;76.37;100825.97;4994593;28;20057;-82
2022/07/18 05:07:17;;;;;;;6.45;2.67;;;;;;;15.05;75.89;100823.16;5010889;28;20492;-83
2022/07/18 05:09:43;;;;;;;13.35;3.25;;;;;;;15.19;75.66;100820.69;5011113;28;20056;-83
2022/07/18 05:12:09;;;;;;;4.97;2.30;;;;;;;15.35;75.80;100823.34;5043044;28;20120;-83
2022/07/18 05:14:34;;;;;;;5.05;2.30;;;;;;;15.51;75.56;100832.81;4995241;28;20041;-82
2022/07/18 05:17:00;;;;;;;3.70;2.25;;;;;;;15.60;74.82;100830.91;5027866;28;20486;-83
2022/07/18 05:19:25;;;;;;;3.75;2.22;;;;;;;15.82;74.86;100825.31;4995548;28;20496;-83
2022/07/18 05:21:51;;;;;;;4.00;2.30;;;;;;;15.94;74.08;100829.31;5010623;28;20045;-83
2022/07/18 05:24:17;;;;;;;4.55;2.28;;;;;;;16.16;74.11;100832.91;5010369;28;20029;-83
2022/07/18 05:26:42;;;;;;;6.50;2.63;;;;;;;16.32;73.43;100829.88;5029293;28;20046;-83
2022/07/18 05:29:08;;;;;;;3.72;2.30;;;;;;;16.47;73.20;100818.91;5025490;28;20513;-83
2022/07/18 05:31:34;;;;;;;9.43;2.78;;;;;;;16.65;72.87;100819.84;5033379;28;20094;-83
2022/07/18 05:34:01;;;;;;;7.05;1.95;;;;;;;16.83;72.11;100813.50;5057411;28;20579;-83
2022/07/18 05:36:26;;;;;;;3.75;2.10;;;;;;;17.00;71.82;100822.44;5011367;28;20092;-82
2022/07/18 05:38:52;;;;;;;7.50;2.10;;;;;;;17.11;72.63;100806.75;5013687;28;20070;-86
2022/07/18 05:41:17;;;;;;;2.95;1.90;;;;;;;17.38;71.17;100817.25;5029107;28;20530;-87
2022/07/18 05:43:43;;;;;;;3.75;1.70;;;;;;;17.57;69.91;100816.06;5045099;28;20080;-86
2022/07/18 05:46:09;;;;;;;4.53;1.92;;;;;;;17.71;69.86;100807.00;5034123;28;20052;-86
2022/07/18 05:48:34;;;;;;;4.43;1.90;;;;;;;17.93;68.89;100812.47;4998944;28;20041;-86
2022/07/18 05:51:00;;;;;;;3.58;2.00;;;;;;;18.09;68.96;100812.13;5015089;28;20629;-86
2022/07/18 05:53:25;;;;;;;4.40;2.13;;;;;;;18.30;68.12;100818.81;5031280;28;20492;-86
2022/07/18 05:55:51;;;;;;;4.30;2.25;;;;;;;18.54;67.04;100818.94;5028927;28;20132;-82
2022/07/18 05:58:16;;;;;;;4.53;2.00;;;;;;;18.80;66.07;100813.69;5035907;28;20038;-81
2022/07/18 06:00:42;;;;;;;5.68;1.90;;;;;;;19.06;63.99;100814.81;5037537;28;20045;-83
2022/07/18 06:03:08;;;;;;;3.40;1.85;;;;;;;19.28;63.52;100817.34;5014251;28;20662;-83
2022/07/18 06:05:34;;;;;;;7.43;2.05;;;;;;;19.53;62.69;100820.47;5014737;28;20577;-83
2022/07/18 06:07:59;;;;;;;2.90;1.70;;;;;;;19.83;61.93;100815.69;5014855;28;20064;-83
2022/07/18 06:10:26;;;;;;;9.15;2.10;;;;;;;20.06;61.32;100816.16;5015098;28;20042;-83
2022/07/18 06:12:52;;;;;;;4.57;1.70;;;;;;;20.34;60.08;100815.38;5024958;28;20060;-83
2022/07/18 06:15:17;;;;;;;6.22;2.00;;;;;;;20.42;59.71;100819.38;5045580;28;20163;-82
2022/07/18 06:17:43;;;;;;;6.50;2.20;;;;;;;20.72;58.53;100816.53;5014929;28;20113;-83
2022/07/18 06:20:09;;;;;;;4.00;1.67;;;;;;;20.83;57.37;100827.97;5028167;28;20093;-83
2022/07/18 06:22:35;;;;;;;3.25;2.00;;;;;;;20.88;56.63;100813.97;5014021;28;20041;-83
2022/07/18 06:25:01;;;;;;;4.15;2.03;;;;;;;21.04;56.69;100818.31;5010178;28;20052;-83
2022/07/18 06:27:26;;;;;;;4.25;1.90;;;;;;;21.30;55.71;100810.78;4998134;28;20041;-83
2022/07/18 06:29:52;;;;;;;10.50;2.40;;;;;;;21.56;54.28;100808.00;5007421;28;20051;-83
2022/07/18 06:32:18;;;;;;;9.02;2.10;;;;;;;21.76;52.45;100808.00;5031345;28;20505;-83
2022/07/18 06:34:43;;;;;;;7.55;2.13;;;;;;;21.81;52.49;100803.69;5037608;28;20785;-83
2022/07/18 06:37:09;;;;;;;9.68;2.28;;;;;;;21.92;52.64;100805.91;5010898;28;20033;-82
2022/07/18 06:39:34;;;;;;;4.13;2.03;;;;;;;21.88;52.42;100809.66;4996206;28;20030;-83
2022/07/18 06:42:00;;;;;;;5.90;2.15;;;;;;;22.06;51.93;100808.63;5001049;28;20124;-82
2022/07/18 06:44:25;;;;;;;7.13;2.15;;;;;;;22.22;52.82;100810.84;5014583;28;20042;-82
2022/07/18 06:46:52;;;;;;;4.13;1.95;;;;;;;22.62;51.34;100814.78;5012170;28;20132;-82
2022/07/18 06:49:18;;;;;;;5.63;2.13;;;;;;;22.76;50.88;100820.34;4997458;28;20033;-82
2022/07/18 06:51:43;;;;;;;6.82;2.20;;;;;;;22.89;50.25;100811.41;5015460;28;20374;-82
2022/07/18 06:54:09;;;;;;;4.68;2.30;;;;;;;23.21;50.33;100812.13;5012849;28;20037;-84
2022/07/18 06:56:38;;;;;;;5.72;2.15;;;;;;;23.27;48.31;100812.16;4996771;28;20041;-81
2022/07/18 06:59:03;;;;;;;6.47;2.58;;;;;;;23.13;49.39;100811.81;5012326;28;20485;-82
2022/07/18 07:01:29;;;;;;;6.38;2.33;;;;;;;23.41;49.66;100812.00;5011583;28;20036;-82
2022/07/18 07:03:55;;;;;;;6.88;2.42;;;;;;;23.70;49.22;100810.81;5031668;28;20080;-82
2022/07/18 07:06:20;;;;;;;5.38;2.05;;;;;;;23.76;48.58;100813.69;5008591;28;20046;-83
2022/07/18 07:08:46;;;;;;;3.92;1.90;;;;;;;23.63;48.36;100802.81;5025443;28;20526;-82
2022/07/18 07:11:11;;;;;;;7.13;2.13;;;;;;;24.10;47.86;100809.66;4989693;28;20041;-81
2022/07/18 07:13:37;;;;;;;8.07;2.30;;;;;;;24.38;46.81;100813.34;4989426;28;20108;-82
2022/07/18 07:16:03;;;;;;;5.70;2.30;;;;;;;24.50;45.85;100812.06;5019505;28;20044;-82
2022/07/18 07:18:28;;;;;;;5.60;2.30;;;;;;;24.55;47.04;100801.97;5007331;28;20104;-83
2022/07/18 07:20:54;;;;;;;8.15;2.40;;;;;;;24.63;47.26;100805.84;4991375;28;20454;-84
2022/07/18 07:23:19;;;;;;;6.03;2.30;;;;;;;24.95;45.50;100814.91;4991854;28;20526;-83
2022/07/18 07:25:45;;;;;;;5.57;2.40;;;;;;;24.74;47.28;100808.69;5022722;28;20454;-83
2022/07/18 07:28:11;;;;;;;4.50;2.03;;;;;;;24.93;47.15;100811.78;5003059;28;20038;-80
2022/07/18 07:30:36;;;;;;;3.92;2.13;;;;;;;25.31;45.67;100813.00;5023774;28;20041;-83
2022/07/18 07:33:03;;;;;;;3.85;1.77;;;;;;;25.68;37.08;100819.06;5006174;28;20495;-80
2022/07/18 07:35:28;;;;;;;3.90;1.70;;;;;;;25.82;34.42;100815.13;5007050;28;20091;-81
2022/07/18 07:37:58;;;;;;;4.55;1.58;;;;;;;25.96;34.06;100808.31;4990091;28;20442;-81
2022/07/18 07:40:26;;;;;;;6.57;1.75;;;;;;;25.99;32.69;100800.84;5023033;28;20498;-81
2022/07/18 07:42:52;;;;;;;2.65;1.38;;;;;;;25.40;29.20;100813.47;5007964;28;20112;-81
2022/07/18 07:45:19;;;;;;;2.92;1.50;;;;;;;25.49;28.14;100818.09;5008945;28;20049;-81
2022/07/18 07:47:44;;;;;;;3.35;1.50;;;;;;;25.46;30.79;100814.25;5025134;28;20081;-82
2022/07/18 07:50:11;;;;;;;3.50;1.67;;;;;;;25.66;31.24;100816.00;5007995;28;20034;-82
2022/07/18 07:52:38;;;;;;;3.10;1.60;;;;;;;25.61;31.40;100810.31;5008944;28;20081;-82
2022/07/18 07:55:05;;;;;;;3.67;1.58;;;;;;;25.57;30.55;100804.91;5005655;28;20045;-81
2022/07/18 07:57:30;;;;;;;4.85;1.42;;;;;;;25.61;29.32;100802.56;4989620;28;20513;-83
2022/07/18 07:59:56;;;;;;;3.08;1.40;;;;;;;25.87;29.29;100808.66;5006089;28;20042;-82
2022/07/18 08:02:22;;;;;;;3.50;1.50;;;;;;;26.13;29.61;100801.75;4989179;28;20034;-83
2022/07/18 08:04:47;;;;;;;1.75;1.38;;;;;;;26.05;27.86;100800.78;5039962;28;20586;-82
2022/07/18 08:07:13;;;;;;;2.50;1.27;;;;;;;25.94;27.13;100808.09;5029969;28;20449;-82
2022/07/18 08:09:38;;;;;;;4.65;1.50;;;;;;;26.19;28.40;100802.50;5000917;28;20124;-83
2022/07/18 08:12:05;;;;;;;7.65;1.95;;;;;;;26.41;29.09;100805.22;5026168;28;20038;-84
2022/07/18 08:14:32;;;;;;;5.88;1.83;;;;;;;26.23;27.92;100800.97;5030341;28;20048;-85
2022/07/18 08:16:59;;;;;;;3.60;1.50;;;;;;;26.68;28.52;100790.00;5017613;28;20052;-84
2022/07/18 08:19:24;;;;;;;3.10;1.48;;;;;;;26.82;29.90;100783.13;4997263;28;20397;-84
2022/07/18 08:21:49;;;;;;;2.83;1.58;;;;;;;26.98;28.61;100794.91;5010800;28;20046;-84
2022/07/18 08:24:15;;;;;;;4.88;1.88;;;;;;;26.69;30.35;100791.50;5011779;28;20056;-84
2022/07/18 08:26:41;;;;;;;3.90;1.80;;;;;;;27.10;29.59;100793.47;5008542;28;20041;-84
2022/07/18 08:29:07;;;;;;;6.18;1.50;;;;;;;26.38;30.06;100789.22;4991917;28;20474;-83
2022/07/18 08:31:33;;;;;;;8.10;1.73;;;;;;;26.47;29.89;100791.72;5013763;28;20044;-83
2022/07/18 08:33:58;;;;;;;3.58;1.65;;;;;;;26.79;30.43;100789.88;5014268;28;20556;-83
2022/07/18 08:36:24;;;;;;;2.67;1.52;;;;;;;26.74;29.53;100796.41;5012393;28;20056;-83
2022/07/18 08:38:50;;;;;;;4.82;1.98;;;;;;;27.04;29.31;100787.84;5034448;28;20041;-83
2022/07/18 08:41:17;;;;;;;2.63;1.67;;;;;;;27.36;30.37;100783.09;5011222;28;20033;-83
2022/07/18 08:43:44;;;;;;;6.18;2.20;;;;;;;27.57;30.31;100780.53;5009598;28;20048;-83
2022/07/18 08:46:10;;;;;;;3.80;1.60;;;;;;;27.74;29.09;100780.31;5029255;28;20557;-83
2022/07/18 08:48:37;;;;;;;5.53;1.70;;;;;;;27.72;28.07;100782.91;5027127;28;20048;-83
2022/07/18 08:51:03;;;;;;;4.70;1.95;;;;;;;28.19;27.49;100778.34;5009612;28;20038;-85
2022/07/18 08:53:28;;;;;;;5.70;1.55;;;;;;;28.64;26.51;100786.16;5024617;28;20136;-82
2022/07/18 08:55:54;;;;;;;5.43;1.75;;;;;;;28.65;27.18;100788.47;4997295;28;20033;-85
2022/07/18 08:58:20;;;;;;;3.13;1.70;;;;;;;28.61;27.01;100776.63;5029611;28;20045;-84
2022/07/18 09:00:47;;;;;;;2.80;1.60;;;;;;;28.39;25.90;100774.13;5015650;28;20037;-84
2022/07/18 09:03:12;;;;;;;4.32;1.70;;;;;;;28.35;26.23;100782.25;5032089;28;20064;-84
2022/07/18 09:05:41;;;;;;;6.63;2.08;;;;;;;28.11;26.29;100785.22;4993189;28;20050;-84
2022/07/18 09:08:16;;;;;;;2.10;1.38;;;;;;;28.19;26.60;100780.41;5024687;28;20414;-84
2022/07/18 09:10:56;;;;;;;3.10;1.70;;;;;;;28.53;26.73;100780.66;5006706;28;20030;-80
2022/07/18 09:13:24;;;;;;;3.03;1.45;;;;;;;28.72;27.58;100772.81;5026298;28;20077;-79
2022/07/18 09:16:06;;;;;;;5.65;1.50;;;;;;;28.75;26.72;100785.25;5032174;28;20039;-79
2022/07/18 09:18:33;;;;;;;;;;;;;;;28.89;26.89;100778.22;5032594;28;20069;-79
2022/07/18 09:21:03;;;;;;;2.90;1.42;;;;;;;29.09;26.22;100780.44;5014149;28;19917;-79
2022/07/18 09:23:33;;;;;;;4.28;1.70;;;;;;;29.26;27.41;100789.44;5040638;28;20048;-81
2022/07/18 09:26:03;;;;;;;3.17;1.63;;;;;;;29.12;26.70;100787.91;5032434;28;20046;-80
2022/07/18 09:28:29;;;;;;;3.15;1.40;;;;;;;29.39;25.64;100783.00;5033398;28;20065;-81
2022/07/18 09:30:55;;;;;;;3.65;1.75;;;;;;;29.72;25.11;100784.38;5030564;28;20052;-81
2022/07/18 09:33:21;;;;;;;4.00;1.40;;;;;;;29.69;26.28;100776.88;5029512;28;20559;-81
2022/07/18 09:35:49;;;;;;;4.80;2.00;;;;;;;29.38;24.97;100782.22;5034406;28;20415;-79
2022/07/18 09:38:17;;;;;;;3.47;1.50;;;;;;;28.10;25.34;100781.63;5017897;28;20046;-84
2022/07/18 09:40:44;;;;;;;3.83;1.52;;;;;;;28.60;24.79;100780.78;4999254;28;20627;-82
2022/07/18 09:43:12;;;;;;;4.78;1.95;;;;;;;29.18;25.21;100780.00;5013731;28;20041;-81
2022/07/18 09:45:43;;;;;;;4.72;1.70;;;;;;;29.53;23.76;100773.06;4981517;28;20264;-86
2022/07/18 09:48:14;;;;;;;2.88;1.63;;;;;;;29.72;25.02;100772.94;5013322;28;20050;-85
2022/07/18 09:50:59;;;;;;;4.55;1.70;;;;;;;29.36;24.78;100764.84;4996689;28;20038;-86
2022/07/18 09:53:33;;;;;;;3.80;1.70;;;;;;;29.69;25.69;100765.44;5012952;28;20061;-86
2022/07/18 09:56:06;;;;;;;4.57;1.65;;;;;;;29.57;25.31;100768.56;5013976;28;20294;-86
2022/07/18 09:58:37;;;;;;;5.13;1.58;;;;;;;30.07;23.38;100769.53;4982222;28;20056;-85
2022/07/18 10:01:04;;;;;;;2.50;1.48;;;;;;;29.36;24.34;100761.97;5014507;28;20057;-86
2022/07/18 10:03:30;;;;;;;4.55;1.75;;;;;;;29.59;25.04;100759.44;4997974;28;20049;-82
2022/07/18 10:05:58;;;;;;;4.18;1.80;;;;;;;29.81;25.18;100763.88;5032386;28;20537;-82
2022/07/18 10:08:25;;;;;;;5.88;1.88;;;;;;;30.39;23.70;100760.69;5001459;28;20066;-82
2022/07/18 10:10:53;;;;;;;2.42;1.40;;;;;;;29.84;23.90;100763.56;5015756;28;20041;-82
2022/07/18 10:13:20;;;;;;;4.38;1.58;;;;;;;30.42;23.37;100759.56;5015409;28;20033;-82
2022/07/18 10:15:47;;;;;;;5.25;1.70;;;;;;;30.44;23.47;100760.59;5015602;28;20060;-82
2022/07/18 10:18:20;;;;;;;3.78;1.73;;;;;;;30.32;23.80;100755.69;4999171;28;20491;-82
2022/07/18 10:20:56;;;;;;;5.20;2.05;;;;;;;30.49;23.45;100759.66;5015551;28;20486;-82
2022/07/18 10:23:27;;;;;;;2.53;1.67;;;;;;;30.07;24.83;100758.88;5050804;28;20110;-82
2022/07/18 10:26:25;;;;;;;3.03;1.80;;;;;;;30.36;24.37;100745.41;5035257;28;20041;-82
2022/07/18 10:29:00;;;;;;;4.43;1.95;;;;;;;30.46;23.87;100743.63;5035123;28;20048;-82
2022/07/18 10:31:33;;;;;;;4.90;1.80;;;;;;;30.65;25.17;100745.50;5052575;28;20052;-82
2022/07/18 10:34:09;;;;;;;5.18;1.80;;;;;;;31.32;23.41;100742.31;5052688;28;20071;-82
2022/07/18 10:36:51;;;;;;;6.38;1.95;;;;;;;31.51;22.42;100741.25;5017604;28;20036;-82
2022/07/18 10:39:25;;;;;;;5.95;2.35;;;;;;;30.78;24.33;100739.66;5052747;28;20049;-82
2022/07/18 10:42:02;;;;;;;4.03;1.98;;;;;;;30.40;25.89;100734.38;5018673;28;20099;-82
2022/07/18 10:44:30;;;;;;;3.33;2.00;;;;;;;30.42;23.88;100731.72;5018201;28;20107;-86
2022/07/18 10:47:09;;;;;;;2.33;1.63;;;;;;;30.35;25.63;100729.56;5052595;28;20076;-85
2022/07/18 10:49:47;;;;;;;4.30;1.70;;;;;;;30.24;25.53;100729.84;5051295;28;20052;-85
2022/07/18 10:52:25;;;;;;;3.00;1.95;;;;;;;30.77;24.51;100715.22;5051628;28;20045;-86
2022/07/18 10:55:05;;;;;;;4.13;1.80;;;;;;;30.64;24.57;100723.91;5052433;28;20037;-85
2022/07/18 10:57:50;;;;;;;3.20;1.60;;;;;;;30.78;23.89;100722.47;5052576;28;20473;-86
2022/07/18 11:00:28;;;;;;;3.92;1.80;;;;;;;30.86;23.78;100724.06;5053178;28;20072;-85
2022/07/18 11:03:00;;;;;;;6.28;1.80;;;;;;;31.31;22.74;100708.47;5034296;28;20037;-82
2022/07/18 11:05:26;;;;;;;3.60;1.60;;;;;;;31.04;22.67;100710.84;5016793;28;20103;-82
2022/07/18 11:08:01;;;;;;;4.38;2.10;;;;;;;30.72;23.39;100710.41;5034270;28;20045;-81
2022/07/18 11:10:50;;;;;;;3.75;1.77;;;;;;;30.96;23.94;100710.00;5014603;28;20041;-81
2022/07/18 11:13:28;;;;;;;4.53;2.08;;;;;;;31.12;23.29;100705.91;5014431;28;20068;-81
2022/07/18 11:16:10;;;;;;;8.30;2.10;;;;;;;30.31;23.04;100697.66;5030761;28;20046;-81
2022/07/18 11:18:42;;;;;;;3.25;2.00;;;;;;;30.76;24.56;100690.78;5051272;28;20042;-81
2022/07/18 11:21:22;;;;;;;5.40;2.07;;;;;;;31.40;23.40;100696.47;5023444;28;20059;-81
2022/07/18 11:24:08;;;;;;;2.63;1.73;;;;;;;30.90;22.85;100687.22;5050649;28;20819;-82
2022/07/18 11:26:35;;;;;;;2.38;1.90;;;;;;;31.43;24.43;100681.78;5034540;28;20084;-82
2022/07/18 11:29:03;;;;;;;4.25;1.88;;;;;;;31.73;21.56;100694.72;5034036;28;20124;-82